sensor_id;sensor_type;location;lat;lon;timestamp;pressure;altitude;pressure_sealevel;temperature
61595;BMP280;47397;48.194;11.632;2023-03-14T00:00:28;94512.59;;;10.39
61595;BMP280;47397;48.194;11.632;2023-03-14T00:01:28;94514.13;;;10.43
61595;BMP280;47397;48.194;11.632;2023-03-14T00:02:29;94510.53;;;10.47
61595;BMP280;47397;48.194;11.632;2023-03-14T00:03:29;94505.25;;;10.52
61595;BMP280;47397;48.194;11.632;2023-03-14T00:04:29;94500.38;;;10.47
61595;BMP280;47397;48.194;11.632;2023-03-14T00:05:30;94492.00;;;10.45
61595;BMP280;47397;48.194;11.632;2023-03-14T00:06:31;94487.25;;;10.56
61595;BMP280;47397;48.194;11.632;2023-03-14T00:07:33;94487.03;;;10.61
61595;BMP280;47397;48.194;11.632;2023-03-14T00:08:34;94484.78;;;10.55
61595;BMP280;47397;48.194;11.632;2023-03-14T00:09:34;94473.53;;;10.60
61595;BMP280;47397;48.194;11.632;2023-03-14T00:10:35;94473.53;;;10.60
61595;BMP280;47397;48.194;11.632;2023-03-14T00:11:36;94460.34;;;10.52
61595;BMP280;47397;48.194;11.632;2023-03-14T00:12:36;94460.88;;;10.59
61595;BMP280;47397;48.194;11.632;2023-03-14T00:13:37;94464.25;;;10.59
61595;BMP280;47397;48.194;11.632;2023-03-14T00:14:38;94459.38;;;10.55
61595;BMP280;47397;48.194;11.632;2023-03-14T00:15:38;94455.06;;;10.57
61595;BMP280;47397;48.194;11.632;2023-03-14T00:16:39;94456.16;;;10.51
61595;BMP280;47397;48.194;11.632;2023-03-14T00:17:42;94452.28;;;10.44
61595;BMP280;47397;48.194;11.632;2023-03-14T00:18:43;94455.50;;;10.48
61595;BMP280;47397;48.194;11.632;2023-03-14T00:19:43;94469.00;;;10.48
61595;BMP280;47397;48.194;11.632;2023-03-14T00:20:44;94471.91;;;10.41
61595;BMP280;47397;48.194;11.632;2023-03-14T00:21:46;94480.59;;;10.35
61595;BMP280;47397;48.194;11.632;2023-03-14T00:22:46;94480.22;;;10.44
61595;BMP280;47397;48.194;11.632;2023-03-14T00:23:46;94480.00;;;10.49
61595;BMP280;47397;48.194;11.632;2023-03-14T00:24:47;94490.28;;;10.46
61595;BMP280;47397;48.194;11.632;2023-03-14T00:25:48;94494.34;;;10.50
61595;BMP280;47397;48.194;11.632;2023-03-14T00:26:48;94497.09;;;10.45
61595;BMP280;47397;48.194;11.632;2023-03-14T00:27:50;94498.59;;;10.49
61595;BMP280;47397;48.194;11.632;2023-03-14T00:28:51;94498.59;;;10.49
61595;BMP280;47397;48.194;11.632;2023-03-14T00:29:52;94487.63;;;10.49
61595;BMP280;47397;48.194;11.632;2023-03-14T00:30:53;94491.88;;;10.48
61595;BMP280;47397;48.194;11.632;2023-03-14T00:31:53;94485.44;;;10.41
61595;BMP280;47397;48.194;11.632;2023-03-14T00:32:53;94487.53;;;10.50
61595;BMP280;47397;48.194;11.632;2023-03-14T00:33:54;94481.34;;;10.56
61595;BMP280;47397;48.194;11.632;2023-03-14T00:34:54;94472.84;;;10.57
61595;BMP280;47397;48.194;11.632;2023-03-14T00:35:56;94459.31;;;10.56
61595;BMP280;47397;48.194;11.632;2023-03-14T00:36:58;94450.28;;;10.51
61595;BMP280;47397;48.194;11.632;2023-03-14T00:37:58;94451.63;;;10.39
61595;BMP280;47397;48.194;11.632;2023-03-14T00:38:58;94456.94;;;10.34
61595;BMP280;47397;48.194;11.632;2023-03-14T00:39:59;94465.78;;;10.26
61595;BMP280;47397;48.194;11.632;2023-03-14T00:41:02;94467.00;;;10.36
61595;BMP280;47397;48.194;11.632;2023-03-14T00:42:03;94457.97;;;10.49
61595;BMP280;47397;48.194;11.632;2023-03-14T00:43:04;94463.19;;;10.46
61595;BMP280;47397;48.194;11.632;2023-03-14T00:44:04;94464.00;;;10.47
61595;BMP280;47397;48.194;11.632;2023-03-14T00:45:05;94457.44;;;10.43
61595;BMP280;47397;48.194;11.632;2023-03-14T00:46:06;94467.28;;;10.49
61595;BMP280;47397;48.194;11.632;2023-03-14T00:47:07;94450.75;;;10.40
61595;BMP280;47397;48.194;11.632;2023-03-14T00:48:07;94469.75;;;10.50
61595;BMP280;47397;48.194;11.632;2023-03-14T00:49:07;94467.00;;;10.55
61595;BMP280;47397;48.194;11.632;2023-03-14T00:50:09;94474.41;;;10.59
61595;BMP280;47397;48.194;11.632;2023-03-14T00:51:10;94480.53;;;10.55
61595;BMP280;47397;48.194;11.632;2023-03-14T00:52:11;94483.81;;;10.57
61595;BMP280;47397;48.194;11.632;2023-03-14T00:53:12;94495.41;;;10.63
61595;BMP280;47397;48.194;11.632;2023-03-14T00:54:12;94497.13;;;10.62
61595;BMP280;47397;48.194;11.632;2023-03-14T00:55:12;94492.88;;;10.63
61595;BMP280;47397;48.194;11.632;2023-03-14T00:56:13;94489.38;;;10.65
61595;BMP280;47397;48.194;11.632;2023-03-14T00:57:13;94485.72;;;10.71
61595;BMP280;47397;48.194;11.632;2023-03-14T00:58:15;94488.03;;;10.76
61595;BMP280;47397;48.194;11.632;2023-03-14T00:59:16;94477.34;;;10.69
61595;BMP280;47397;48.194;11.632;2023-03-14T01:00:17;94477.69;;;10.61
61595;BMP280;47397;48.194;11.632;2023-03-14T01:01:18;94487.19;;;10.58
61595;BMP280;47397;48.194;11.632;2023-03-14T01:02:19;94480.09;;;10.64
61595;BMP280;47397;48.194;11.632;2023-03-14T01:03:19;94481.13;;;10.60
61595;BMP280;47397;48.194;11.632;2023-03-14T01:04:19;94487.88;;;10.61
61595;BMP280;47397;48.194;11.632;2023-03-14T01:05:21;94491.16;;;10.63
61595;BMP280;47397;48.194;11.632;2023-03-14T01:06:23;94500.19;;;10.69
61595;BMP280;47397;48.194;11.632;2023-03-14T01:07:25;94499.53;;;10.65
61595;BMP280;47397;48.194;11.632;2023-03-14T01:08:26;94500.13;;;10.71
61595;BMP280;47397;48.194;11.632;2023-03-14T01:09:26;94500.06;;;10.72
61595;BMP280;47397;48.194;11.632;2023-03-14T01:10:26;94500.28;;;10.68
61595;BMP280;47397;48.194;11.632;2023-03-14T01:11:29;94495.50;;;10.61
61595;BMP280;47397;48.194;11.632;2023-03-14T01:12:30;94499.53;;;10.65
61595;BMP280;47397;48.194;11.632;2023-03-14T01:13:30;94501.31;;;10.63
61595;BMP280;47397;48.194;11.632;2023-03-14T01:14:30;94512.00;;;10.70
61595;BMP280;47397;48.194;11.632;2023-03-14T01:15:32;94513.13;;;10.64
61595;BMP280;47397;48.194;11.632;2023-03-14T01:16:34;94512.22;;;10.65
61595;BMP280;47397;48.194;11.632;2023-03-14T01:17:35;94518.13;;;10.66
61595;BMP280;47397;48.194;11.632;2023-03-14T01:18:35;94515.00;;;10.61
61595;BMP280;47397;48.194;11.632;2023-03-14T01:19:36;94521.72;;;10.62
61595;BMP280;47397;48.194;11.632;2023-03-14T01:20:37;94511.84;;;10.56
61595;BMP280;47397;48.194;11.632;2023-03-14T01:21:38;94525.44;;;10.55
61595;BMP280;47397;48.194;11.632;2023-03-14T01:22:40;94520.28;;;10.56
61595;BMP280;47397;48.194;11.632;2023-03-14T01:23:41;94533.19;;;10.52
61595;BMP280;47397;48.194;11.632;2023-03-14T01:24:42;94523.84;;;10.52
61595;BMP280;47397;48.194;11.632;2023-03-14T01:25:42;94526.41;;;10.52
61595;BMP280;47397;48.194;11.632;2023-03-14T01:26:43;94532.38;;;10.51
61595;BMP280;47397;48.194;11.632;2023-03-14T01:27:43;94538.06;;;10.56
61595;BMP280;47397;48.194;11.632;2023-03-14T01:28:45;94536.69;;;10.49
61595;BMP280;47397;48.194;11.632;2023-03-14T01:29:46;94539.16;;;10.51
61595;BMP280;47397;48.194;11.632;2023-03-14T01:30:46;94537.66;;;10.47
61595;BMP280;47397;48.194;11.632;2023-03-14T01:31:46;94531.16;;;10.41
61595;BMP280;47397;48.194;11.632;2023-03-14T01:32:47;94538.25;;;10.33
61595;BMP280;47397;48.194;11.632;2023-03-14T01:33:47;94535.41;;;10.41
61595;BMP280;47397;48.194;11.632;2023-03-14T01:34:48;94543.06;;;10.39
61595;BMP280;47397;48.194;11.632;2023-03-14T01:35:49;94536.47;;;10.35
61595;BMP280;47397;48.194;11.632;2023-03-14T01:36:50;94535.41;;;10.41
61595;BMP280;47397;48.194;11.632;2023-03-14T01:37:52;94539.34;;;10.27
61595;BMP280;47397;48.194;11.632;2023-03-14T01:38:52;94535.84;;;10.30
61595;BMP280;47397;48.194;11.632;2023-03-14T01:39:52;94537.28;;;10.36
61595;BMP280;47397;48.194;11.632;2023-03-14T01:40:53;94541.81;;;10.29
61595;BMP280;47397;48.194;11.632;2023-03-14T01:41:54;94553.91;;;10.24
61595;BMP280;47397;48.194;11.632;2023-03-14T01:42:55;94549.66;;;10.24
61595;BMP280;47397;48.194;11.632;2023-03-14T01:43:55;94537.09;;;10.21
61595;BMP280;47397;48.194;11.632;2023-03-14T01:44:57;94552.19;;;10.24
61595;BMP280;47397;48.194;11.632;2023-03-14T01:46:18;94539.50;;;10.24
61595;BMP280;47397;48.194;11.632;2023-03-14T01:47:19;94545.41;;;10.25
61595;BMP280;47397;48.194;11.632;2023-03-14T01:48:20;94552.94;;;10.26
61595;BMP280;47397;48.194;11.632;2023-03-14T01:49:23;94540.56;;;10.19
61595;BMP280;47397;48.194;11.632;2023-03-14T01:50:24;94546.81;;;10.12
61595;BMP280;47397;48.194;11.632;2023-03-14T01:51:29;94539.75;;;9.98
61595;BMP280;47397;48.194;11.632;2023-03-14T01:52:32;94544.22;;;9.93
61595;BMP280;47397;48.194;11.632;2023-03-14T01:53:38;94545.53;;;10.01
61595;BMP280;47397;48.194;11.632;2023-03-14T01:54:41;94541.81;;;9.90
61595;BMP280;47397;48.194;11.632;2023-03-14T01:55:42;94545.03;;;9.93
61595;BMP280;47397;48.194;11.632;2023-03-14T01:56:46;94544.91;;;9.96
61595;BMP280;47397;48.194;11.632;2023-03-14T01:57:50;94548.84;;;10.03
61595;BMP280;47397;48.194;11.632;2023-03-14T01:58:53;94548.34;;;9.95
61595;BMP280;47397;48.194;11.632;2023-03-14T01:59:55;94542.31;;;9.98
61595;BMP280;47397;48.194;11.632;2023-03-14T02:00:58;94544.09;;;9.96
61595;BMP280;47397;48.194;11.632;2023-03-14T02:01:59;94550.25;;;9.90
61595;BMP280;47397;48.194;11.632;2023-03-14T02:03:01;94547.72;;;9.90
61595;BMP280;47397;48.194;11.632;2023-03-14T02:04:04;94548.81;;;9.85
61595;BMP280;47397;48.194;11.632;2023-03-14T02:05:06;94553.94;;;9.83
61595;BMP280;47397;48.194;11.632;2023-03-14T02:06:07;94559.16;;;9.80
61595;BMP280;47397;48.194;11.632;2023-03-14T02:07:12;94547.69;;;9.71
61595;BMP280;47397;48.194;11.632;2023-03-14T02:08:15;94564.84;;;9.65
61595;BMP280;47397;48.194;11.632;2023-03-14T02:09:18;94552.06;;;9.68
61595;BMP280;47397;48.194;11.632;2023-03-14T02:10:21;94558.94;;;9.64
61595;BMP280;47397;48.194;11.632;2023-03-14T02:11:26;94545.22;;;9.70
61595;BMP280;47397;48.194;11.632;2023-03-14T02:12:28;94555.34;;;9.70
61595;BMP280;47397;48.194;11.632;2023-03-14T02:13:28;94544.53;;;9.65
61595;BMP280;47397;48.194;11.632;2023-03-14T02:14:32;94544.03;;;9.57
61595;BMP280;47397;48.194;11.632;2023-03-14T02:15:33;94549.31;;;9.52
61595;BMP280;47397;48.194;11.632;2023-03-14T02:16:34;94526.28;;;9.57
61595;BMP280;47397;48.194;11.632;2023-03-14T02:17:35;94538.16;;;9.56
61595;BMP280;47397;48.194;11.632;2023-03-14T02:18:35;94529.72;;;9.56
61595;BMP280;47397;48.194;11.632;2023-03-14T02:19:55;94528.06;;;9.55
61595;BMP280;47397;48.194;11.632;2023-03-14T02:20:58;94523.81;;;9.55
61595;BMP280;47397;48.194;11.632;2023-03-14T02:22:06;94538.47;;;9.49
61595;BMP280;47397;48.194;11.632;2023-03-14T02:23:07;94522.44;;;9.48
61595;BMP280;47397;48.194;11.632;2023-03-14T02:24:13;94523.81;;;9.55
61595;BMP280;47397;48.194;11.632;2023-03-14T02:25:24;94521.03;;;9.41
61595;BMP280;47397;48.194;11.632;2023-03-14T02:26:32;94519.47;;;9.38
61595;BMP280;47397;48.194;11.632;2023-03-14T02:27:37;94500.38;;;9.30
61595;BMP280;47397;48.194;11.632;2023-03-14T02:28:38;94508.69;;;9.33
61595;BMP280;47397;48.194;11.632;2023-03-14T02:29:41;94510.41;;;9.33
61595;BMP280;47397;48.194;11.632;2023-03-14T02:30:45;94517.31;;;9.29
61595;BMP280;47397;48.194;11.632;2023-03-14T02:31:46;94498.78;;;9.27
61595;BMP280;47397;48.194;11.632;2023-03-14T02:32:48;94496.69;;;9.17
61595;BMP280;47397;48.194;11.632;2023-03-14T02:33:52;94487.94;;;9.24
61595;BMP280;47397;48.194;11.632;2023-03-14T02:34:54;94475.06;;;9.28
61595;BMP280;47397;48.194;11.632;2023-03-14T02:35:58;94469.16;;;9.29
61595;BMP280;47397;48.194;11.632;2023-03-14T02:36:59;94467.66;;;9.24
61595;BMP280;47397;48.194;11.632;2023-03-14T02:38:04;94447.56;;;9.19
61595;BMP280;47397;48.194;11.632;2023-03-14T02:39:13;94439.78;;;9.24
61595;BMP280;47397;48.194;11.632;2023-03-14T02:40:16;94427.16;;;9.22
61595;BMP280;47397;48.194;11.632;2023-03-14T02:41:16;94426.16;;;9.26
61595;BMP280;47397;48.194;11.632;2023-03-14T02:42:17;94425.91;;;9.12
61595;BMP280;47397;48.194;11.632;2023-03-14T02:43:18;94417.63;;;9.08
61595;BMP280;47397;48.194;11.632;2023-03-14T02:44:19;94418.06;;;9.18
61595;BMP280;47397;48.194;11.632;2023-03-14T02:45:34;94411.53;;;9.13
61595;BMP280;47397;48.194;11.632;2023-03-14T02:46:34;94396.88;;;9.19
61595;BMP280;47397;48.194;11.632;2023-03-14T02:47:37;94387.66;;;8.98
61595;BMP280;47397;48.194;11.632;2023-03-14T02:48:41;94375.38;;;8.89
61595;BMP280;47397;48.194;11.632;2023-03-14T02:49:43;94377.72;;;8.73
61595;BMP280;47397;48.194;11.632;2023-03-14T02:50:45;94385.44;;;8.90
61595;BMP280;47397;48.194;11.632;2023-03-14T02:51:46;94373.84;;;9.05
61595;BMP280;47397;48.194;11.632;2023-03-14T02:52:47;94368.41;;;8.94
61595;BMP280;47397;48.194;11.632;2023-03-14T02:53:48;94369.19;;;8.96
61595;BMP280;47397;48.194;11.632;2023-03-14T02:54:48;94376.25;;;9.08
61595;BMP280;47397;48.194;11.632;2023-03-14T02:55:49;94367.63;;;9.12
61595;BMP280;47397;48.194;11.632;2023-03-14T02:56:49;94364.97;;;9.15
61595;BMP280;47397;48.194;11.632;2023-03-14T02:57:50;94357.97;;;9.20
61595;BMP280;47397;48.194;11.632;2023-03-14T02:58:51;94364.75;;;9.20
61595;BMP280;47397;48.194;11.632;2023-03-14T02:59:52;94357.97;;;9.20
61595;BMP280;47397;48.194;11.632;2023-03-14T03:00:52;94367.06;;;9.05
61595;BMP280;47397;48.194;11.632;2023-03-14T03:01:53;94364.41;;;9.08
61595;BMP280;47397;48.194;11.632;2023-03-14T03:02:53;94366.66;;;9.15
61595;BMP280;47397;48.194;11.632;2023-03-14T03:03:54;94371.81;;;9.13
61595;BMP280;47397;48.194;11.632;2023-03-14T03:04:54;94368.44;;;9.13
61595;BMP280;47397;48.194;11.632;2023-03-14T03:05:55;94369.69;;;9.23
61595;BMP280;47397;48.194;11.632;2023-03-14T03:06:56;94378.66;;;9.31
61595;BMP280;47397;48.194;11.632;2023-03-14T03:07:57;94384.78;;;9.26
61595;BMP280;47397;48.194;11.632;2023-03-14T03:08:57;94379.91;;;9.21
61595;BMP280;47397;48.194;11.632;2023-03-14T03:09:58;94395.19;;;9.20
61595;BMP280;47397;48.194;11.632;2023-03-14T03:10:58;94392.50;;;9.23
61595;BMP280;47397;48.194;11.632;2023-03-14T03:11:59;94391.41;;;9.28
61595;BMP280;47397;48.194;11.632;2023-03-14T03:12:59;94412.22;;;9.16
61595;BMP280;47397;48.194;11.632;2023-03-14T03:14:01;94404.94;;;9.08
61595;BMP280;47397;48.194;11.632;2023-03-14T03:15:02;94397.09;;;9.15
61595;BMP280;47397;48.194;11.632;2023-03-14T03:16:03;94405.31;;;9.20
61595;BMP280;47397;48.194;11.632;2023-03-14T03:17:04;94402.72;;;9.21
61595;BMP280;47397;48.194;11.632;2023-03-14T03:18:05;94406.06;;;9.22
61595;BMP280;47397;48.194;11.632;2023-03-14T03:19:05;94404.00;;;9.31
61595;BMP280;47397;48.194;11.632;2023-03-14T03:20:06;94397.38;;;9.27
61595;BMP280;47397;48.194;11.632;2023-03-14T03:21:07;94388.66;;;9.34
61595;BMP280;47397;48.194;11.632;2023-03-14T03:22:07;94399.69;;;9.33
61595;BMP280;47397;48.194;11.632;2023-03-14T03:23:08;94390.25;;;9.17
61595;BMP280;47397;48.194;11.632;2023-03-14T03:24:11;94395.63;;;9.09
61595;BMP280;47397;48.194;11.632;2023-03-14T03:25:12;94402.97;;;9.15
61595;BMP280;47397;48.194;11.632;2023-03-14T03:26:12;94390.25;;;9.17
61595;BMP280;47397;48.194;11.632;2023-03-14T03:27:13;94402.03;;;9.18
61595;BMP280;47397;48.194;11.632;2023-03-14T03:28:13;94396.69;;;9.24
61595;BMP280;47397;48.194;11.632;2023-03-14T03:29:15;94389.41;;;9.16
61595;BMP280;47397;48.194;11.632;2023-03-14T03:30:15;94384.22;;;9.19
61595;BMP280;47397;48.194;11.632;2023-03-14T03:31:16;94388.38;;;9.01
61595;BMP280;47397;48.194;11.632;2023-03-14T03:32:16;94387.56;;;9.20
61595;BMP280;47397;48.194;11.632;2023-03-14T03:33:17;94387.63;;;9.18
61595;BMP280;47397;48.194;11.632;2023-03-14T03:34:17;94382.69;;;9.15
61595;BMP280;47397;48.194;11.632;2023-03-14T03:35:17;94384.34;;;9.16
61595;BMP280;47397;48.194;11.632;2023-03-14T03:36:20;94379.97;;;9.20
61595;BMP280;47397;48.194;11.632;2023-03-14T03:37:21;94376.00;;;9.14
61595;BMP280;47397;48.194;11.632;2023-03-14T03:38:21;94376.75;;;9.16
61595;BMP280;47397;48.194;11.632;2023-03-14T03:39:22;94381.56;;;9.22
61595;BMP280;47397;48.194;11.632;2023-03-14T03:40:22;94372.16;;;9.24
61595;BMP280;47397;48.194;11.632;2023-03-14T03:41:23;94368.19;;;9.19
61595;BMP280;47397;48.194;11.632;2023-03-14T03:42:23;94371.47;;;9.21
61595;BMP280;47397;48.194;11.632;2023-03-14T03:43:24;94376.75;;;9.16
61595;BMP280;47397;48.194;11.632;2023-03-14T03:44:25;94374.75;;;9.04
61595;BMP280;47397;48.194;11.632;2023-03-14T03:45:26;94374.97;;;9.18
61595;BMP280;47397;48.194;11.632;2023-03-14T03:46:26;94361.53;;;9.16
61595;BMP280;47397;48.194;11.632;2023-03-14T03:47:27;94365.72;;;9.17
61595;BMP280;47397;48.194;11.632;2023-03-14T03:48:28;94362.50;;;9.14
61595;BMP280;47397;48.194;11.632;2023-03-14T03:49:29;94366.47;;;9.19
61595;BMP280;47397;48.194;11.632;2023-03-14T03:50:30;94364.47;;;9.07
61595;BMP280;47397;48.194;11.632;2023-03-14T03:51:30;94369.94;;;8.98
61595;BMP280;47397;48.194;11.632;2023-03-14T03:52:31;94370.50;;;9.04
61595;BMP280;47397;48.194;11.632;2023-03-14T03:53:31;94365.84;;;9.14
61595;BMP280;47397;48.194;11.632;2023-03-14T03:54:32;94367.56;;;9.14
61595;BMP280;47397;48.194;11.632;2023-03-14T03:55:32;94368.03;;;9.03
61595;BMP280;47397;48.194;11.632;2023-03-14T03:56:32;94375.44;;;9.07
61595;BMP280;47397;48.194;11.632;2023-03-14T03:57:33;94369.66;;;9.04
61595;BMP280;47397;48.194;11.632;2023-03-14T03:58:33;94372.66;;;8.93
61595;BMP280;47397;48.194;11.632;2023-03-14T03:59:35;94371.84;;;8.93
61595;BMP280;47397;48.194;11.632;2023-03-14T04:00:35;94363.09;;;9.00
61595;BMP280;47397;48.194;11.632;2023-03-14T04:01:36;94363.50;;;8.89
61595;BMP280;47397;48.194;11.632;2023-03-14T04:02:36;94361.88;;;8.88
61595;BMP280;47397;48.194;11.632;2023-03-14T04:03:37;94360.28;;;8.86
61595;BMP280;47397;48.194;11.632;2023-03-14T04:04:37;94364.28;;;8.91
61595;BMP280;47397;48.194;11.632;2023-03-14T04:05:38;94362.06;;;8.84
61595;BMP280;47397;48.194;11.632;2023-03-14T04:06:38;94357.50;;;8.92
61595;BMP280;47397;48.194;11.632;2023-03-14T04:07:39;94362.88;;;8.84
61595;BMP280;47397;48.194;11.632;2023-03-14T04:08:39;94372.00;;;8.88
61595;BMP280;47397;48.194;11.632;2023-03-14T04:09:40;94355.81;;;8.72
61595;BMP280;47397;48.194;11.632;2023-03-14T04:10:40;94351.94;;;8.84
61595;BMP280;47397;48.194;11.632;2023-03-14T04:11:40;94353.06;;;8.76
61595;BMP280;47397;48.194;11.632;2023-03-14T04:12:41;94353.31;;;8.91
61595;BMP280;47397;48.194;11.632;2023-03-14T04:13:41;94348.25;;;8.91
61595;BMP280;47397;48.194;11.632;2023-03-14T04:14:43;94354.97;;;8.92
61595;BMP280;47397;48.194;11.632;2023-03-14T04:15:43;94358.66;;;8.85
61595;BMP280;47397;48.194;11.632;2023-03-14T04:16:44;94357.88;;;8.83
61595;BMP280;47397;48.194;11.632;2023-03-14T04:17:44;94362.19;;;8.81
61595;BMP280;47397;48.194;11.632;2023-03-14T04:18:45;94370.56;;;8.83
61595;BMP280;47397;48.194;11.632;2023-03-14T04:19:45;94357.38;;;8.74
61595;BMP280;47397;48.194;11.632;2023-03-14T04:20:45;94355.63;;;8.76
61595;BMP280;47397;48.194;11.632;2023-03-14T04:21:50;94357.88;;;8.83
61595;BMP280;47397;48.194;11.632;2023-03-14T04:22:50;94355.63;;;8.76
61595;BMP280;47397;48.194;11.632;2023-03-14T04:23:51;94354.78;;;8.76
61595;BMP280;47397;48.194;11.632;2023-03-14T04:24:51;94354.09;;;8.72
61595;BMP280;47397;48.194;11.632;2023-03-14T04:25:53;94346.94;;;8.82
61595;BMP280;47397;48.194;11.632;2023-03-14T04:26:53;94341.81;;;8.84
61595;BMP280;47397;48.194;11.632;2023-03-14T04:27:53;94351.13;;;8.83
61595;BMP280;47397;48.194;11.632;2023-03-14T04:28:54;94339.72;;;8.73
61595;BMP280;47397;48.194;11.632;2023-03-14T04:29:55;94338.63;;;8.78
61595;BMP280;47397;48.194;11.632;2023-03-14T04:30:56;94346.31;;;8.77
61595;BMP280;47397;48.194;11.632;2023-03-14T04:31:56;94342.81;;;8.80
61595;BMP280;47397;48.194;11.632;2023-03-14T04:32:57;94344.66;;;8.76
61595;BMP280;47397;48.194;11.632;2023-03-14T04:33:57;94334.66;;;8.73
61595;BMP280;47397;48.194;11.632;2023-03-14T04:34:57;94332.81;;;8.76
61595;BMP280;47397;48.194;11.632;2023-03-14T04:35:58;94340.59;;;8.72
61595;BMP280;47397;48.194;11.632;2023-03-14T04:36:58;94325.34;;;8.73
61595;BMP280;47397;48.194;11.632;2023-03-14T04:37:59;94328.50;;;8.78
61595;BMP280;47397;48.194;11.632;2023-03-14T04:38:59;94315.34;;;8.70
61595;BMP280;47397;48.194;11.632;2023-03-14T04:40:00;94328.91;;;8.69
61595;BMP280;47397;48.194;11.632;2023-03-14T04:41:00;94326.50;;;8.66
61595;BMP280;47397;48.194;11.632;2023-03-14T04:42:01;94325.47;;;8.70
61595;BMP280;47397;48.194;11.632;2023-03-14T04:43:01;94316.75;;;8.57
61595;BMP280;47397;48.194;11.632;2023-03-14T04:44:01;94315.94;;;8.57
61595;BMP280;47397;48.194;11.632;2023-03-14T04:45:04;94317.25;;;8.65
61595;BMP280;47397;48.194;11.632;2023-03-14T04:46:06;94324.91;;;8.64
61595;BMP280;47397;48.194;11.632;2023-03-14T04:47:06;94322.31;;;8.65
61595;BMP280;47397;48.194;11.632;2023-03-14T04:48:07;94325.75;;;8.64
61595;BMP280;47397;48.194;11.632;2023-03-14T04:49:07;94339.00;;;8.49
61595;BMP280;47397;48.194;11.632;2023-03-14T04:50:08;94334.69;;;8.51
61595;BMP280;47397;48.194;11.632;2023-03-14T04:51:09;94324.84;;;8.65
61595;BMP280;47397;48.194;11.632;2023-03-14T04:52:09;94332.44;;;8.65
61595;BMP280;47397;48.194;11.632;2023-03-14T04:53:10;94335.41;;;8.55
61595;BMP280;47397;48.194;11.632;2023-03-14T04:54:10;94330.34;;;8.55
61595;BMP280;47397;48.194;11.632;2023-03-14T04:55:10;94312.19;;;8.65
61595;BMP280;47397;48.194;11.632;2023-03-14T04:56:11;94313.84;;;8.66
61595;BMP280;47397;48.194;11.632;2023-03-14T04:57:11;94306.44;;;8.62
61595;BMP280;47397;48.194;11.632;2023-03-14T04:58:12;94295.97;;;8.69
61595;BMP280;47397;48.194;11.632;2023-03-14T04:59:12;94298.00;;;8.61
61595;BMP280;47397;48.194;11.632;2023-03-14T05:00:14;94300.53;;;8.61
61595;BMP280;47397;48.194;11.632;2023-03-14T05:01:14;94303.06;;;8.61
61595;BMP280;47397;48.194;11.632;2023-03-14T05:02:15;94295.03;;;8.52
61595;BMP280;47397;48.194;11.632;2023-03-14T05:03:16;94296.50;;;8.57
61595;BMP280;47397;48.194;11.632;2023-03-14T05:04:17;94293.84;;;8.60
61595;BMP280;47397;48.194;11.632;2023-03-14T05:05:18;94292.19;;;8.59
61595;BMP280;47397;48.194;11.632;2023-03-14T05:06:19;94288.00;;;8.58
61595;BMP280;47397;48.194;11.632;2023-03-14T05:07:19;94276.13;;;8.60
61595;BMP280;47397;48.194;11.632;2023-03-14T05:08:20;94277.00;;;8.59
61595;BMP280;47397;48.194;11.632;2023-03-14T05:09:20;94286.31;;;8.59
61595;BMP280;47397;48.194;11.632;2023-03-14T05:10:21;94285.22;;;8.64
61595;BMP280;47397;48.194;11.632;2023-03-14T05:11:21;94284.53;;;8.61
61595;BMP280;47397;48.194;11.632;2023-03-14T05:12:21;94285.34;;;8.61
61595;BMP280;47397;48.194;11.632;2023-03-14T05:13:22;94292.19;;;8.59
61595;BMP280;47397;48.194;11.632;2023-03-14T05:14:23;94298.97;;;8.59
61595;BMP280;47397;48.194;11.632;2023-03-14T05:15:25;94290.09;;;8.49
61595;BMP280;47397;48.194;11.632;2023-03-14T05:16:25;94302.63;;;8.52
61595;BMP280;47397;48.194;11.632;2023-03-14T05:17:26;94294.72;;;8.59
61595;BMP280;47397;48.194;11.632;2023-03-14T05:18:26;94293.84;;;8.60
61595;BMP280;47397;48.194;11.632;2023-03-14T05:19:27;94287.75;;;8.64
61595;BMP280;47397;48.194;11.632;2023-03-14T05:20:27;94296.66;;;8.53
61595;BMP280;47397;48.194;11.632;2023-03-14T05:21:28;94296.50;;;8.57
61595;BMP280;47397;48.194;11.632;2023-03-14T05:22:28;94299.78;;;8.59
61595;BMP280;47397;48.194;11.632;2023-03-14T05:23:28;94299.03;;;8.57
61595;BMP280;47397;48.194;11.632;2023-03-14T05:24:29;94294.88;;;8.55
61595;BMP280;47397;48.194;11.632;2023-03-14T05:25:29;94285.22;;;8.44
61595;BMP280;47397;48.194;11.632;2023-03-14T05:26:31;94285.16;;;8.45
61595;BMP280;47397;48.194;11.632;2023-03-14T05:27:31;94286.47;;;8.54
61595;BMP280;47397;48.194;11.632;2023-03-14T05:28:32;94286.66;;;8.50
61595;BMP280;47397;48.194;11.632;2023-03-14T05:29:32;94290.84;;;8.51
61595;BMP280;47397;48.194;11.632;2023-03-14T05:30:34;94294.97;;;8.53
61595;BMP280;47397;48.194;11.632;2023-03-14T05:31:34;94298.00;;;8.61
61595;BMP280;47397;48.194;11.632;2023-03-14T05:32:35;94304.09;;;8.57
61595;BMP280;47397;48.194;11.632;2023-03-14T05:33:35;94306.50;;;8.60
61595;BMP280;47397;48.194;11.632;2023-03-14T05:34:36;94311.75;;;8.56
61595;BMP280;47397;48.194;11.632;2023-03-14T05:35:36;94304.19;;;8.54
61595;BMP280;47397;48.194;11.632;2023-03-14T05:36:38;94303.28;;;8.57
61595;BMP280;47397;48.194;11.632;2023-03-14T05:37:38;94306.72;;;8.54
61595;BMP280;47397;48.194;11.632;2023-03-14T05:38:39;94303.34;;;8.55
61595;BMP280;47397;48.194;11.632;2023-03-14T05:39:39;94309.25;;;8.54
61595;BMP280;47397;48.194;11.632;2023-03-14T05:40:40;94303.28;;;8.57
61595;BMP280;47397;48.194;11.632;2023-03-14T05:41:40;94301.44;;;8.60
61595;BMP280;47397;48.194;11.632;2023-03-14T05:42:40;94294.47;;;8.45
61595;BMP280;47397;48.194;11.632;2023-03-14T05:43:41;94300.69;;;8.58
61595;BMP280;47397;48.194;11.632;2023-03-14T05:44:41;94299.91;;;8.56
61595;BMP280;47397;48.194;11.632;2023-03-14T05:45:43;94297.88;;;8.64
61595;BMP280;47397;48.194;11.632;2023-03-14T05:46:43;94292.41;;;8.53
61595;BMP280;47397;48.194;11.632;2023-03-14T05:47:44;94290.69;;;8.55
61595;BMP280;47397;48.194;11.632;2023-03-14T05:48:44;94291.44;;;8.57
61595;BMP280;47397;48.194;11.632;2023-03-14T05:49:45;94299.13;;;8.54
61595;BMP280;47397;48.194;11.632;2023-03-14T05:50:45;94291.53;;;8.54